createdAt,value
2019-04-11T00:03:25.013Z,21.30
2019-04-11T00:08:28.329Z,17.97
2019-04-11T00:13:33.377Z,20.27
2019-04-11T00:18:36.701Z,19.60
2019-04-11T00:23:40.571Z,17.55
2019-04-11T00:28:43.850Z,20.90
2019-04-11T00:33:46.992Z,16.27
2019-04-11T00:38:50.585Z,19.15
2019-04-11T00:43:54.653Z,16.77
2019-04-11T00:48:57.982Z,19.55
2019-04-11T00:54:01.127Z,17.05
2019-04-11T00:59:04.198Z,17.95
2019-04-11T01:04:07.655Z,16.65
2019-04-11T01:09:12.430Z,18.55
2019-04-11T01:14:15.677Z,15.93
2019-04-11T01:19:18.811Z,18.65
2019-04-11T01:24:22.204Z,13.83
2019-04-11T01:29:25.424Z,16.50
2019-04-11T01:34:28.869Z,18.63
2019-04-11T01:40:03.653Z,19.77
2019-04-11T01:45:09.415Z,24.85
2019-04-11T01:50:16.828Z,20.23
2019-04-11T01:55:20.662Z,16.17
2019-04-11T02:00:42.517Z,16.12
2019-04-11T02:05:45.708Z,17.00
2019-04-11T02:10:48.874Z,20.92
2019-04-11T02:15:54.214Z,23.03
2019-04-11T02:20:57.637Z,14.60
2019-04-11T02:26:07.157Z,15.98
2019-04-11T02:31:12.261Z,21.90
2019-04-11T02:36:16.697Z,19.57
2019-04-11T02:41:21.091Z,18.52
2019-04-11T02:46:36.957Z,19.48
2019-04-11T02:51:31.016Z,17.10
2019-04-11T02:56:35.690Z,12.47
2019-04-11T03:01:39.874Z,15.45
2019-04-11T03:06:43.867Z,14.38
2019-04-11T03:11:49.290Z,12.97
2019-04-11T03:17:03.893Z,13.30
2019-04-11T03:21:59.354Z,13.70
2019-04-11T03:27:05.709Z,13.58
2019-04-11T03:32:48.902Z,11.63
2019-04-11T03:37:38.044Z,13.70
2019-04-11T03:42:38.194Z,15.23
2019-04-11T03:47:37.341Z,13.47
2019-04-11T03:52:30.604Z,14.53
2019-04-11T03:57:34.429Z,16.90
2019-04-11T04:02:38.975Z,13.85
2019-04-11T04:07:44.138Z,15.60
2019-04-11T04:12:48.123Z,17.30
2019-04-11T04:18:01.303Z,20.72
2019-04-11T04:23:23.042Z,17.10
2019-04-11T04:28:27.239Z,15.23
2019-04-11T04:33:30.784Z,16.75
2019-04-11T04:38:37.719Z,11.80
2019-04-11T04:43:43.587Z,19.35
2019-04-11T04:48:47.866Z,17.10
2019-04-11T04:53:52.139Z,17.20
2019-04-11T04:58:55.992Z,16.70
2019-04-11T05:03:59.226Z,20.12
2019-04-11T05:09:02.537Z,14.45
2019-04-11T05:14:07.066Z,16.32
2019-04-11T05:19:10.429Z,14.23
2019-04-11T05:24:14.500Z,19.80
2019-04-11T05:29:17.725Z,17.57
2019-04-11T05:34:20.684Z,15.35
2019-04-11T05:39:23.731Z,15.45
2019-04-11T05:44:26.714Z,19.35
2019-04-11T05:49:42.032Z,17.82
2019-04-11T05:54:49.801Z,15.83
2019-04-11T05:59:55.123Z,17.20
2019-04-11T06:05:05.391Z,13.55
2019-04-11T06:10:14.668Z,18.00
2019-04-11T06:15:29.263Z,18.40
2019-04-11T06:20:47.554Z,20.30
2019-04-11T06:25:57.593Z,23.98
2019-04-11T06:31:24.836Z,19.07
2019-04-11T06:36:48.249Z,22.58
2019-04-11T06:41:59.077Z,23.05
2019-04-11T06:47:30.657Z,19.80
2019-04-11T06:52:34.958Z,17.30
2019-04-11T06:57:38.322Z,20.50
2019-04-11T07:02:44.537Z,19.35
2019-04-11T07:07:49.978Z,21.33
2019-04-11T07:13:00.833Z,17.52
2019-04-11T07:18:31.109Z,18.60
2019-04-11T07:23:53.414Z,20.40
2019-04-11T07:29:17.276Z,14.58
2019-04-11T07:34:43.633Z,20.33
2019-04-11T07:40:26.640Z,23.38
2019-04-11T07:45:49.056Z,19.75
2019-04-11T07:50:54.989Z,22.00
2019-04-11T07:55:57.542Z,19.57
2019-04-11T08:01:29.427Z,24.73
2019-04-11T08:06:52.155Z,21.52
2019-04-11T08:12:04.541Z,25.03
2019-04-11T08:17:25.872Z,23.73
2019-04-11T08:22:50.075Z,25.30
2019-04-11T08:28:13.980Z,28.62
2019-04-11T08:33:18.311Z,29.30
2019-04-11T08:38:29.420Z,22.42
2019-04-11T08:43:33.053Z,24.60
2019-04-11T08:48:41.179Z,20.50
2019-04-11T08:54:19.536Z,21.75
2019-04-11T08:59:45.998Z,19.55
2019-04-11T09:05:14.683Z,18.12
2019-04-11T09:10:15.712Z,24.37
2019-04-11T09:15:37.511Z,23.32
2019-04-11T09:21:12.453Z,20.43
2019-04-11T09:26:42.466Z,21.60
2019-04-11T09:32:18.154Z,22.50
2019-04-11T09:37:46.630Z,18.77
2019-04-11T09:43:22.199Z,24.23
2019-04-11T09:48:44.403Z,22.02
2019-04-11T09:53:52.919Z,28.00
2019-04-11T09:58:58.262Z,19.12
2019-04-11T10:04:01.580Z,28.30
2019-04-11T10:09:08.091Z,23.30
2019-04-11T10:14:13.674Z,26.07
2019-04-11T10:19:38.115Z,20.17
2019-04-11T10:25:19.364Z,22.87
2019-04-11T10:30:48.260Z,19.30
2019-04-11T10:36:10.433Z,23.95
2019-04-11T10:41:32.657Z,23.25
2019-04-11T10:46:49.549Z,19.90
2019-04-11T10:51:58.747Z,19.82
2019-04-11T10:57:24.339Z,21.33
2019-04-11T11:02:53.638Z,16.32
2019-04-11T11:08:02.332Z,15.30
2019-04-11T11:13:25.676Z,15.85
2019-04-11T11:19:24.599Z,17.20
2019-04-11T11:24:33.838Z,18.40
2019-04-11T11:29:56.504Z,19.73
2019-04-11T11:35:25.265Z,22.67
2019-04-11T11:40:50.059Z,21.52
2019-04-11T11:46:25.712Z,15.43
2019-04-11T11:51:45.741Z,15.88
2019-04-11T11:56:49.078Z,17.23
2019-04-11T12:02:04.445Z,15.03
2019-04-11T12:07:09.406Z,18.70
2019-04-11T12:12:17.682Z,14.90
2019-04-11T12:17:47.039Z,12.43
2019-04-11T12:22:52.071Z,22.05
2019-04-11T12:28:14.701Z,23.67
2019-04-11T12:33:35.398Z,34.55
2019-04-11T12:38:56.062Z,19.35
2019-04-11T12:44:26.705Z,15.55
2019-04-11T12:49:52.989Z,22.13
2019-04-11T12:54:54.523Z,15.25
2019-04-11T13:00:05.996Z,18.27
2019-04-11T13:05:10.747Z,19.85
2019-04-11T13:10:32.125Z,18.35
2019-04-11T13:15:40.732Z,16.20
2019-04-11T13:21:03.694Z,15.85
2019-04-11T13:26:41.231Z,15.85
2019-04-11T13:32:02.547Z,17.67
2019-04-11T13:37:23.878Z,13.70
2019-04-11T13:42:44.982Z,13.00
2019-04-11T13:48:16.811Z,12.50
2019-04-11T13:53:37.849Z,13.38
2019-04-11T13:59:12.454Z,16.17
2019-04-11T14:04:21.318Z,9.95
2019-04-11T14:09:31.410Z,12.03
2019-04-11T14:14:36.552Z,10.43
2019-04-11T14:19:53.873Z,10.75
2019-04-11T14:25:15.072Z,13.10
2019-04-11T14:30:43.921Z,11.88
2019-04-11T14:36:32.615Z,11.22
2019-04-11T14:41:46.222Z,11.38
2019-04-11T14:47:11.927Z,12.55
2019-04-11T14:52:36.605Z,11.50
2019-04-11T14:58:02.161Z,13.30
2019-04-11T15:03:14.687Z,17.70
2019-04-11T15:08:30.806Z,12.30
2019-04-11T15:13:33.956Z,13.43
2019-04-11T15:18:42.072Z,19.00
2019-04-11T15:23:47.717Z,16.05
2019-04-11T15:29:22.110Z,14.13
2019-04-11T15:34:34.763Z,16.05
2019-04-11T15:39:56.170Z,12.43
2019-04-11T15:45:14.770Z,17.20
2019-04-11T15:50:35.993Z,16.00
2019-04-11T15:55:47.439Z,16.10
2019-04-11T16:00:58.397Z,16.87
2019-04-11T16:06:19.647Z,17.02
2019-04-11T16:11:42.188Z,14.33
2019-04-11T16:17:13.948Z,15.78
2019-04-11T16:22:34.868Z,16.62
2019-04-11T16:28:07.148Z,21.57
2019-04-11T16:33:23.419Z,20.92
2019-04-11T16:38:27.358Z,19.32
2019-04-11T16:43:32.086Z,19.10
2019-04-11T16:48:35.292Z,23.40
2019-04-11T16:53:38.318Z,22.75
2019-04-11T16:58:43.024Z,20.92
2019-04-11T17:03:45.998Z,21.27
2019-04-11T17:08:56.395Z,15.98
2019-04-11T17:13:58.998Z,20.25
2019-04-11T17:19:04.957Z,14.47
2019-04-11T17:24:06.919Z,17.40
2019-04-11T17:29:09.891Z,15.80
2019-04-11T17:34:12.902Z,20.20
2019-04-11T17:39:15.918Z,29.05
2019-04-11T17:44:18.904Z,24.05
2019-04-11T17:49:22.005Z,23.83
2019-04-11T17:54:25.587Z,21.07
2019-04-11T17:59:29.139Z,23.50
2019-04-11T18:04:32.273Z,25.90
2019-04-11T18:09:35.349Z,25.75
2019-04-11T18:14:38.344Z,29.23
2019-04-11T18:19:41.475Z,22.73
2019-04-11T18:24:44.623Z,21.37
2019-04-11T18:29:47.783Z,26.27
2019-04-11T18:34:50.738Z,26.95
2019-04-11T18:39:53.754Z,27.80
2019-04-11T18:44:56.725Z,27.40
2019-04-11T18:49:59.826Z,28.80
2019-04-11T18:55:04.460Z,22.00
2019-04-11T19:00:12.979Z,29.10
2019-04-11T19:05:27.873Z,27.55
2019-04-11T19:10:22.035Z,28.53
2019-04-11T19:15:25.062Z,31.52
2019-04-11T19:20:28.155Z,30.43
2019-04-11T19:25:31.697Z,30.57
2019-04-11T19:30:34.912Z,33.02
2019-04-11T19:35:41.345Z,32.45
2019-04-11T19:40:44.175Z,29.77
2019-04-11T19:45:50.070Z,32.00
2019-04-11T19:50:53.203Z,36.10
2019-04-11T19:56:22.081Z,35.37
2019-04-11T20:01:25.131Z,29.30
2019-04-11T20:06:28.171Z,31.57
2019-04-11T20:11:31.157Z,30.88
2019-04-11T20:16:41.837Z,30.02
2019-04-11T20:21:39.093Z,23.42
2019-04-11T20:26:42.158Z,25.20
2019-04-11T20:31:45.553Z,29.15
2019-04-11T20:36:48.751Z,23.52
2019-04-11T20:41:53.615Z,27.10
2019-04-11T20:47:00.131Z,31.55
2019-04-11T20:52:01.910Z,27.73
2019-04-11T20:57:05.009Z,30.77
2019-04-11T21:02:08.216Z,30.35
2019-04-11T21:07:12.040Z,34.50
2019-04-11T21:12:17.084Z,38.63
2019-04-11T21:17:21.218Z,30.50
2019-04-11T21:22:24.871Z,41.16
2019-04-11T21:27:29.020Z,44.26
2019-04-11T21:32:32.996Z,34.87
2019-04-11T21:37:36.771Z,36.88
2019-04-11T21:42:40.465Z,35.30
2019-04-11T21:47:43.573Z,38.17
2019-04-11T21:52:46.749Z,34.95
2019-04-11T21:57:49.965Z,33.85
2019-04-11T22:02:54.346Z,37.10
2019-04-11T22:07:58.100Z,31.30
2019-04-11T22:13:01.480Z,38.10
2019-04-11T22:18:04.877Z,33.60
2019-04-11T22:23:08.007Z,31.85
2019-04-11T22:28:11.122Z,31.12
2019-04-11T22:33:32.946Z,25.70
2019-04-11T22:38:36.204Z,24.05
2019-04-11T22:43:39.443Z,23.73
2019-04-11T22:48:42.620Z,21.50
2019-04-11T22:53:45.803Z,25.00
2019-04-11T22:58:49.028Z,25.45
2019-04-11T23:04:01.539Z,22.45
2019-04-11T23:09:06.759Z,22.87
2019-04-11T23:14:09.887Z,23.92
2019-04-11T23:19:14.362Z,22.30
2019-04-11T23:24:17.727Z,19.00
2019-04-11T23:29:21.147Z,23.55
2019-04-11T23:34:24.263Z,26.27
2019-04-11T23:39:27.447Z,26.75
2019-04-11T23:44:30.592Z,22.10
2019-04-11T23:49:33.790Z,24.40
2019-04-11T23:54:36.841Z,23.65
2019-04-11T23:59:39.988Z,21.57
